sensor_id;sensor_type;location;lat;lon;timestamp;temperature;humidity
12374;DHT22;6251;51.762;8.660;2023-02-03T05:08:00;7.30;99.90
12374;DHT22;6251;51.762;8.660;2023-02-03T05:18:01;7.30;99.90
12374;DHT22;6251;51.762;8.660;2023-02-03T05:28:01;7.30;99.90
12374;DHT22;6251;51.762;8.660;2023-02-03T05:38:02;7.30;99.90
12374;DHT22;6251;51.762;8.660;2023-02-03T05:48:03;7.30;99.90
12374;DHT22;6251;51.762;8.660;2023-02-03T05:58:03;7.30;99.90
12374;DHT22;6251;51.762;8.660;2023-02-03T06:08:04;7.30;99.90
12374;DHT22;6251;51.762;8.660;2023-02-03T06:18:05;7.30;99.90
12374;DHT22;6251;51.762;8.660;2023-02-03T06:28:06;7.30;99.90
12374;DHT22;6251;51.762;8.660;2023-02-03T06:38:06;7.40;99.90
12374;DHT22;6251;51.762;8.660;2023-02-03T06:48:07;7.40;99.90
12374;DHT22;6251;51.762;8.660;2023-02-03T06:58:08;7.30;99.90
12374;DHT22;6251;51.762;8.660;2023-02-03T07:08:08;7.20;99.90
12374;DHT22;6251;51.762;8.660;2023-02-03T07:18:09;7.20;99.90
12374;DHT22;6251;51.762;8.660;2023-02-03T07:28:09;7.30;99.90
12374;DHT22;6251;51.762;8.660;2023-02-03T07:38:10;7.20;99.90
12374;DHT22;6251;51.762;8.660;2023-02-03T07:48:11;7.20;99.90
12374;DHT22;6251;51.762;8.660;2023-02-03T07:58:12;7.10;99.90
12374;DHT22;6251;51.762;8.660;2023-02-03T08:08:12;7.20;99.90
12374;DHT22;6251;51.762;8.660;2023-02-03T08:18:13;7.20;99.90
12374;DHT22;6251;51.762;8.660;2023-02-03T08:28:14;7.20;99.90
12374;DHT22;6251;51.762;8.660;2023-02-03T08:38:15;7.20;99.90
12374;DHT22;6251;51.762;8.660;2023-02-03T08:48:16;7.20;99.90
12374;DHT22;6251;51.762;8.660;2023-02-03T08:58:16;7.20;99.90
12374;DHT22;6251;51.762;8.660;2023-02-03T09:08:17;7.30;99.90
12374;DHT22;6251;51.762;8.660;2023-02-03T09:18:17;7.30;99.90
12374;DHT22;6251;51.762;8.660;2023-02-03T09:28:18;7.30;99.90
12374;DHT22;6251;51.762;8.660;2023-02-03T09:38:19;7.40;99.90
12374;DHT22;6251;51.762;8.660;2023-02-03T09:48:23;7.40;99.90
12374;DHT22;6251;51.762;8.660;2023-02-03T09:58:28;7.40;99.90
12374;DHT22;6251;51.762;8.660;2023-02-03T10:08:44;7.40;99.90
12374;DHT22;6251;51.762;8.660;2023-02-03T10:18:52;7.50;99.90
12374;DHT22;6251;51.762;8.660;2023-02-03T10:39:50;7.60;99.90
12374;DHT22;6251;51.762;8.660;2023-02-03T10:49:53;7.70;99.90
12374;DHT22;6251;51.762;8.660;2023-02-03T11:00:19;7.80;99.90
12374;DHT22;6251;51.762;8.660;2023-02-03T11:10:36;7.90;99.90
12374;DHT22;6251;51.762;8.660;2023-02-03T11:20:37;7.90;99.90
12374;DHT22;6251;51.762;8.660;2023-02-03T11:30:37;7.90;99.90
12374;DHT22;6251;51.762;8.660;2023-02-03T11:40:38;7.90;99.90
12374;DHT22;6251;51.762;8.660;2023-02-03T11:51:11;7.90;99.90
12374;DHT22;6251;51.762;8.660;2023-02-03T12:01:27;8.00;99.90
12374;DHT22;6251;51.762;8.660;2023-02-03T12:11:39;8.00;99.90
12374;DHT22;6251;51.762;8.660;2023-02-03T12:21:44;8.00;99.90
12374;DHT22;6251;51.762;8.660;2023-02-03T12:53:14;7.80;99.90
12374;DHT22;6251;51.762;8.660;2023-02-03T13:13:36;7.70;99.90
12374;DHT22;6251;51.762;8.660;2023-02-03T13:23:42;7.80;99.90
12374;DHT22;6251;51.762;8.660;2023-02-03T13:34:00;7.80;99.90
12374;DHT22;6251;51.762;8.660;2023-02-03T13:44:04;7.90;99.90
12374;DHT22;6251;51.762;8.660;2023-02-03T13:54:07;7.90;99.90
12374;DHT22;6251;51.762;8.660;2023-02-03T14:24:38;7.70;99.90
12374;DHT22;6251;51.762;8.660;2023-02-03T14:34:44;7.70;99.90
12374;DHT22;6251;51.762;8.660;2023-02-03T15:15:13;7.50;99.90
12374;DHT22;6251;51.762;8.660;2023-02-03T15:25:21;7.50;99.90
12374;DHT22;6251;51.762;8.660;2023-02-03T15:35:22;7.40;99.90
12374;DHT22;6251;51.762;8.660;2023-02-03T15:45:37;7.40;99.90
12374;DHT22;6251;51.762;8.660;2023-02-03T15:55:45;7.40;99.90
12374;DHT22;6251;51.762;8.660;2023-02-03T16:05:47;7.30;99.90
12374;DHT22;6251;51.762;8.660;2023-02-03T16:16:22;7.20;99.90
12374;DHT22;6251;51.762;8.660;2023-02-03T16:26:34;7.10;99.90
12374;DHT22;6251;51.762;8.660;2023-02-03T16:36:42;7.10;99.90
12374;DHT22;6251;51.762;8.660;2023-02-03T16:47:02;7.00;99.90
12374;DHT22;6251;51.762;8.660;2023-02-03T16:57:22;7.00;99.90
12374;DHT22;6251;51.762;8.660;2023-02-03T17:07:23;6.90;99.90
12374;DHT22;6251;51.762;8.660;2023-02-03T17:17:24;6.90;99.90
12374;DHT22;6251;51.762;8.660;2023-02-03T17:27:25;6.80;99.90
12374;DHT22;6251;51.762;8.660;2023-02-03T17:37:25;6.80;99.90
12374;DHT22;6251;51.762;8.660;2023-02-03T17:47:26;6.60;99.90
12374;DHT22;6251;51.762;8.660;2023-02-03T17:57:27;6.50;99.90
12374;DHT22;6251;51.762;8.660;2023-02-03T18:07:28;6.40;99.90
12374;DHT22;6251;51.762;8.660;2023-02-03T18:17:28;6.40;99.90
12374;DHT22;6251;51.762;8.660;2023-02-03T18:27:29;6.30;99.90
12374;DHT22;6251;51.762;8.660;2023-02-03T18:37:29;6.20;99.90
12374;DHT22;6251;51.762;8.660;2023-02-03T18:47:30;6.10;99.90
12374;DHT22;6251;51.762;8.660;2023-02-03T18:57:31;6.20;99.90
12374;DHT22;6251;51.762;8.660;2023-02-03T19:07:31;6.20;99.90
12374;DHT22;6251;51.762;8.660;2023-02-03T19:17:32;6.30;99.90
12374;DHT22;6251;51.762;8.660;2023-02-03T19:27:32;6.30;99.90
12374;DHT22;6251;51.762;8.660;2023-02-03T19:37:33;6.30;99.90
12374;DHT22;6251;51.762;8.660;2023-02-03T19:47:33;6.30;99.90
12374;DHT22;6251;51.762;8.660;2023-02-03T19:57:34;6.30;99.90
12374;DHT22;6251;51.762;8.660;2023-02-03T20:07:35;6.20;99.90
12374;DHT22;6251;51.762;8.660;2023-02-03T20:17:35;6.30;99.90
12374;DHT22;6251;51.762;8.660;2023-02-03T20:27:36;6.20;99.90
12374;DHT22;6251;51.762;8.660;2023-02-03T20:37:36;6.10;99.90
12374;DHT22;6251;51.762;8.660;2023-02-03T20:47:37;6.10;99.90
12374;DHT22;6251;51.762;8.660;2023-02-03T20:57:38;6.20;99.90
12374;DHT22;6251;51.762;8.660;2023-02-03T21:07:46;6.10;99.90
12374;DHT22;6251;51.762;8.660;2023-02-03T21:17:46;6.20;99.90
12374;DHT22;6251;51.762;8.660;2023-02-03T21:27:50;6.10;99.90
12374;DHT22;6251;51.762;8.660;2023-02-03T21:37:53;6.10;99.90
12374;DHT22;6251;51.762;8.660;2023-02-03T21:47:57;6.10;99.90
12374;DHT22;6251;51.762;8.660;2023-02-03T21:58:00;6.00;99.90
12374;DHT22;6251;51.762;8.660;2023-02-03T22:08:19;6.00;99.90
